sensor_id;sensor_type;location;lat;lon;timestamp;P1;durP1;ratioP1;P2;durP2;ratioP2
9767;SDS011;4923;52.520;13.494;2022-08-03T00:01:11;5.63;;;1.60;;
9767;SDS011;4923;52.520;13.494;2022-08-03T00:04:01;2.27;;;1.50;;
9767;SDS011;4923;52.520;13.494;2022-08-03T00:06:49;4.87;;;1.77;;
9767;SDS011;4923;52.520;13.494;2022-08-03T00:09:36;4.47;;;1.77;;
9767;SDS011;4923;52.520;13.494;2022-08-03T00:12:23;1.67;;;1.57;;
9767;SDS011;4923;52.520;13.494;2022-08-03T00:15:11;1.73;;;1.63;;
9767;SDS011;4923;52.520;13.494;2022-08-03T00:18:02;3.27;;;1.33;;
9767;SDS011;4923;52.520;13.494;2022-08-03T00:20:49;3.33;;;1.60;;
9767;SDS011;4923;52.520;13.494;2022-08-03T00:23:37;6.03;;;1.67;;
9767;SDS011;4923;52.520;13.494;2022-08-03T00:26:24;2.00;;;1.90;;
9767;SDS011;4923;52.520;13.494;2022-08-03T00:29:11;2.43;;;2.23;;
9767;SDS011;4923;52.520;13.494;2022-08-03T00:31:58;4.33;;;1.70;;
9767;SDS011;4923;52.520;13.494;2022-08-03T00:34:46;1.77;;;1.67;;
9767;SDS011;4923;52.520;13.494;2022-08-03T00:37:33;3.63;;;2.13;;
9767;SDS011;4923;52.520;13.494;2022-08-03T00:40:20;6.60;;;2.20;;
9767;SDS011;4923;52.520;13.494;2022-08-03T00:43:07;1.80;;;1.70;;
9767;SDS011;4923;52.520;13.494;2022-08-03T00:45:55;5.00;;;1.77;;
9767;SDS011;4923;52.520;13.494;2022-08-03T00:48:41;4.63;;;1.97;;
9767;SDS011;4923;52.520;13.494;2022-08-03T00:51:30;1.90;;;1.70;;
9767;SDS011;4923;52.520;13.494;2022-08-03T00:54:17;3.23;;;1.93;;
9767;SDS011;4923;52.520;13.494;2022-08-03T00:57:05;2.30;;;1.70;;
9767;SDS011;4923;52.520;13.494;2022-08-03T00:59:53;4.67;;;1.57;;
9767;SDS011;4923;52.520;13.494;2022-08-03T01:02:39;3.13;;;1.93;;
9767;SDS011;4923;52.520;13.494;2022-08-03T01:05:27;8.23;;;2.20;;
9767;SDS011;4923;52.520;13.494;2022-08-03T01:08:18;3.97;;;1.50;;
9767;SDS011;4923;52.520;13.494;2022-08-03T01:11:09;3.40;;;1.77;;
9767;SDS011;4923;52.520;13.494;2022-08-03T01:14:02;4.57;;;1.83;;
9767;SDS011;4923;52.520;13.494;2022-08-03T01:16:55;3.80;;;1.90;;
9767;SDS011;4923;52.520;13.494;2022-08-03T01:19:45;5.23;;;1.90;;
9767;SDS011;4923;52.520;13.494;2022-08-03T01:22:51;9.20;;;1.60;;
9767;SDS011;4923;52.520;13.494;2022-08-03T01:26:07;2.03;;;1.93;;
9767;SDS011;4923;52.520;13.494;2022-08-03T01:29:06;4.47;;;1.40;;
9767;SDS011;4923;52.520;13.494;2022-08-03T01:32:04;2.10;;;1.80;;
9767;SDS011;4923;52.520;13.494;2022-08-03T01:34:58;3.27;;;1.90;;
9767;SDS011;4923;52.520;13.494;2022-08-03T01:37:49;4.53;;;2.00;;
9767;SDS011;4923;52.520;13.494;2022-08-03T01:40:39;2.47;;;2.20;;
9767;SDS011;4923;52.520;13.494;2022-08-03T01:43:27;5.13;;;2.37;;
9767;SDS011;4923;52.520;13.494;2022-08-03T01:46:16;4.43;;;2.47;;
9767;SDS011;4923;52.520;13.494;2022-08-03T01:49:08;1.97;;;1.83;;
9767;SDS011;4923;52.520;13.494;2022-08-03T01:51:58;1.73;;;1.60;;
9767;SDS011;4923;52.520;13.494;2022-08-03T01:54:47;2.90;;;1.80;;
9767;SDS011;4923;52.520;13.494;2022-08-03T01:57:37;2.20;;;2.10;;
9767;SDS011;4923;52.520;13.494;2022-08-03T02:00:26;13.93;;;2.20;;
9767;SDS011;4923;52.520;13.494;2022-08-03T02:03:13;3.23;;;2.10;;
9767;SDS011;4923;52.520;13.494;2022-08-03T02:06:03;6.93;;;2.10;;
9767;SDS011;4923;52.520;13.494;2022-08-03T02:08:52;3.30;;;1.70;;
9767;SDS011;4923;52.520;13.494;2022-08-03T02:11:40;2.60;;;1.77;;
9767;SDS011;4923;52.520;13.494;2022-08-03T02:14:28;3.93;;;2.23;;
9767;SDS011;4923;52.520;13.494;2022-08-03T02:17:16;5.37;;;2.50;;
9767;SDS011;4923;52.520;13.494;2022-08-03T02:20:04;2.53;;;2.27;;
9767;SDS011;4923;52.520;13.494;2022-08-03T02:22:55;5.53;;;2.50;;
9767;SDS011;4923;52.520;13.494;2022-08-03T02:25:43;2.13;;;2.03;;
9767;SDS011;4923;52.520;13.494;2022-08-03T02:28:33;2.80;;;1.90;;
9767;SDS011;4923;52.520;13.494;2022-08-03T02:31:23;6.37;;;2.70;;
9767;SDS011;4923;52.520;13.494;2022-08-03T02:34:14;7.67;;;2.17;;
9767;SDS011;4923;52.520;13.494;2022-08-03T02:37:06;6.90;;;2.67;;
9767;SDS011;4923;52.520;13.494;2022-08-03T02:39:58;2.50;;;2.30;;
9767;SDS011;4923;52.520;13.494;2022-08-03T02:42:48;4.13;;;2.37;;
9767;SDS011;4923;52.520;13.494;2022-08-03T02:45:43;2.57;;;2.27;;
9767;SDS011;4923;52.520;13.494;2022-08-03T02:48:33;3.23;;;1.90;;
9767;SDS011;4923;52.520;13.494;2022-08-03T02:51:21;2.93;;;2.23;;
9767;SDS011;4923;52.520;13.494;2022-08-03T02:54:10;3.27;;;2.20;;
9767;SDS011;4923;52.520;13.494;2022-08-03T02:57:01;3.83;;;2.13;;
9767;SDS011;4923;52.520;13.494;2022-08-03T02:59:49;4.07;;;2.10;;
9767;SDS011;4923;52.520;13.494;2022-08-03T03:02:38;2.20;;;1.77;;
9767;SDS011;4923;52.520;13.494;2022-08-03T03:05:26;2.67;;;2.17;;
9767;SDS011;4923;52.520;13.494;2022-08-03T03:08:15;8.20;;;2.20;;
9767;SDS011;4923;52.520;13.494;2022-08-03T03:11:04;4.00;;;2.20;;
9767;SDS011;4923;52.520;13.494;2022-08-03T03:13:54;5.00;;;2.13;;
9767;SDS011;4923;52.520;13.494;2022-08-03T03:16:43;4.03;;;2.77;;
9767;SDS011;4923;52.520;13.494;2022-08-03T03:19:31;3.33;;;2.23;;
9767;SDS011;4923;52.520;13.494;2022-08-03T03:22:19;3.07;;;2.50;;
9767;SDS011;4923;52.520;13.494;2022-08-03T03:25:08;2.83;;;2.30;;
9767;SDS011;4923;52.520;13.494;2022-08-03T03:27:56;4.27;;;2.70;;
9767;SDS011;4923;52.520;13.494;2022-08-03T03:30:44;2.83;;;2.07;;
9767;SDS011;4923;52.520;13.494;2022-08-03T03:33:32;4.93;;;2.50;;
9767;SDS011;4923;52.520;13.494;2022-08-03T03:36:19;6.17;;;2.63;;
9767;SDS011;4923;52.520;13.494;2022-08-03T03:39:06;5.00;;;2.57;;
9767;SDS011;4923;52.520;13.494;2022-08-03T03:41:53;2.33;;;2.23;;
9767;SDS011;4923;52.520;13.494;2022-08-03T03:44:40;2.63;;;2.43;;
9767;SDS011;4923;52.520;13.494;2022-08-03T03:47:28;3.07;;;2.53;;
9767;SDS011;4923;52.520;13.494;2022-08-03T03:50:16;3.53;;;2.37;;
9767;SDS011;4923;52.520;13.494;2022-08-03T03:53:03;7.13;;;2.90;;
9767;SDS011;4923;52.520;13.494;2022-08-03T03:55:50;2.43;;;2.30;;
9767;SDS011;4923;52.520;13.494;2022-08-03T03:58:38;3.07;;;2.60;;
9767;SDS011;4923;52.520;13.494;2022-08-03T04:01:25;2.90;;;2.50;;
9767;SDS011;4923;52.520;13.494;2022-08-03T04:04:13;4.93;;;2.70;;
9767;SDS011;4923;52.520;13.494;2022-08-03T04:07:18;2.57;;;2.33;;
9767;SDS011;4923;52.520;13.494;2022-08-03T04:10:23;2.97;;;2.77;;
9767;SDS011;4923;52.520;13.494;2022-08-03T04:13:32;2.63;;;2.20;;
9767;SDS011;4923;52.520;13.494;2022-08-03T04:16:24;4.80;;;3.00;;
9767;SDS011;4923;52.520;13.494;2022-08-03T04:19:14;3.80;;;2.80;;
9767;SDS011;4923;52.520;13.494;2022-08-03T04:22:06;5.60;;;2.73;;
9767;SDS011;4923;52.520;13.494;2022-08-03T04:24:56;3.43;;;2.10;;
9767;SDS011;4923;52.520;13.494;2022-08-03T04:27:47;7.60;;;2.70;;
9767;SDS011;4923;52.520;13.494;2022-08-03T04:30:36;9.63;;;2.87;;
9767;SDS011;4923;52.520;13.494;2022-08-03T04:33:32;4.27;;;3.20;;
9767;SDS011;4923;52.520;13.494;2022-08-03T04:36:23;7.03;;;3.00;;
9767;SDS011;4923;52.520;13.494;2022-08-03T04:39:12;9.33;;;3.70;;
9767;SDS011;4923;52.520;13.494;2022-08-03T04:42:03;3.03;;;2.70;;
9767;SDS011;4923;52.520;13.494;2022-08-03T04:44:52;4.50;;;3.10;;
9767;SDS011;4923;52.520;13.494;2022-08-03T04:47:41;3.53;;;2.17;;
9767;SDS011;4923;52.520;13.494;2022-08-03T04:50:28;5.70;;;2.70;;
9767;SDS011;4923;52.520;13.494;2022-08-03T04:53:17;8.20;;;3.73;;
9767;SDS011;4923;52.520;13.494;2022-08-03T04:56:06;7.77;;;2.97;;
9767;SDS011;4923;52.520;13.494;2022-08-03T04:58:53;3.10;;;2.50;;
9767;SDS011;4923;52.520;13.494;2022-08-03T05:01:40;3.90;;;2.60;;
9767;SDS011;4923;52.520;13.494;2022-08-03T05:04:27;3.43;;;2.60;;
9767;SDS011;4923;52.520;13.494;2022-08-03T05:07:15;7.77;;;2.63;;
9767;SDS011;4923;52.520;13.494;2022-08-03T05:10:05;4.33;;;2.80;;
9767;SDS011;4923;52.520;13.494;2022-08-03T05:12:53;4.63;;;2.13;;
9767;SDS011;4923;52.520;13.494;2022-08-03T05:15:40;4.93;;;2.30;;
9767;SDS011;4923;52.520;13.494;2022-08-03T05:18:27;2.80;;;2.47;;
9767;SDS011;4923;52.520;13.494;2022-08-03T05:21:14;6.27;;;2.77;;
9767;SDS011;4923;52.520;13.494;2022-08-03T05:24:01;7.57;;;2.70;;
9767;SDS011;4923;52.520;13.494;2022-08-03T05:26:50;6.10;;;2.70;;
9767;SDS011;4923;52.520;13.494;2022-08-03T05:29:37;5.43;;;1.93;;
9767;SDS011;4923;52.520;13.494;2022-08-03T05:32:24;7.70;;;2.60;;
9767;SDS011;4923;52.520;13.494;2022-08-03T05:35:11;11.87;;;3.80;;
9767;SDS011;4923;52.520;13.494;2022-08-03T05:37:58;2.10;;;1.90;;
9767;SDS011;4923;52.520;13.494;2022-08-03T05:40:45;8.23;;;2.23;;
9767;SDS011;4923;52.520;13.494;2022-08-03T05:43:33;4.90;;;2.50;;
9767;SDS011;4923;52.520;13.494;2022-08-03T05:46:20;9.97;;;2.47;;
9767;SDS011;4923;52.520;13.494;2022-08-03T05:49:07;4.33;;;2.13;;
9767;SDS011;4923;52.520;13.494;2022-08-03T05:51:54;5.17;;;2.70;;
9767;SDS011;4923;52.520;13.494;2022-08-03T05:54:41;6.53;;;2.53;;
9767;SDS011;4923;52.520;13.494;2022-08-03T05:57:28;4.93;;;1.67;;
9767;SDS011;4923;52.520;13.494;2022-08-03T06:00:17;6.87;;;1.80;;
9767;SDS011;4923;52.520;13.494;2022-08-03T06:03:04;9.93;;;2.23;;
9767;SDS011;4923;52.520;13.494;2022-08-03T06:05:51;5.40;;;2.07;;
9767;SDS011;4923;52.520;13.494;2022-08-03T06:08:38;6.37;;;2.37;;
9767;SDS011;4923;52.520;13.494;2022-08-03T06:11:26;5.00;;;2.00;;
9767;SDS011;4923;52.520;13.494;2022-08-03T06:14:12;8.50;;;2.70;;
9767;SDS011;4923;52.520;13.494;2022-08-03T06:17:01;9.60;;;2.07;;
9767;SDS011;4923;52.520;13.494;2022-08-03T06:19:48;10.90;;;2.30;;
9767;SDS011;4923;52.520;13.494;2022-08-03T06:22:37;4.03;;;1.83;;
9767;SDS011;4923;52.520;13.494;2022-08-03T06:25:24;5.03;;;1.70;;
9767;SDS011;4923;52.520;13.494;2022-08-03T06:28:11;3.17;;;1.60;;
9767;SDS011;4923;52.520;13.494;2022-08-03T06:30:59;10.30;;;1.93;;
9767;SDS011;4923;52.520;13.494;2022-08-03T06:33:47;4.93;;;1.80;;
9767;SDS011;4923;52.520;13.494;2022-08-03T06:36:34;9.13;;;1.67;;
9767;SDS011;4923;52.520;13.494;2022-08-03T06:39:21;13.33;;;2.27;;
9767;SDS011;4923;52.520;13.494;2022-08-03T06:42:08;5.33;;;1.80;;
9767;SDS011;4923;52.520;13.494;2022-08-03T06:44:56;14.53;;;2.00;;
9767;SDS011;4923;52.520;13.494;2022-08-03T06:47:43;6.73;;;1.83;;
9767;SDS011;4923;52.520;13.494;2022-08-03T06:50:32;9.30;;;1.77;;
9767;SDS011;4923;52.520;13.494;2022-08-03T06:53:21;17.57;;;2.20;;
9767;SDS011;4923;52.520;13.494;2022-08-03T06:56:08;20.63;;;1.70;;
9767;SDS011;4923;52.520;13.494;2022-08-03T06:58:55;9.83;;;1.93;;
9767;SDS011;4923;52.520;13.494;2022-08-03T07:01:42;6.93;;;1.87;;
9767;SDS011;4923;52.520;13.494;2022-08-03T07:04:30;6.83;;;1.80;;
9767;SDS011;4923;52.520;13.494;2022-08-03T07:07:19;2.00;;;1.53;;
9767;SDS011;4923;52.520;13.494;2022-08-03T07:10:06;9.40;;;1.60;;
9767;SDS011;4923;52.520;13.494;2022-08-03T07:12:57;1.93;;;1.70;;
9767;SDS011;4923;52.520;13.494;2022-08-03T07:15:47;6.30;;;2.07;;
9767;SDS011;4923;52.520;13.494;2022-08-03T07:18:36;3.63;;;1.70;;
9767;SDS011;4923;52.520;13.494;2022-08-03T07:21:24;7.43;;;1.53;;
9767;SDS011;4923;52.520;13.494;2022-08-03T07:24:17;5.47;;;1.60;;
9767;SDS011;4923;52.520;13.494;2022-08-03T07:27:05;6.93;;;1.53;;
9767;SDS011;4923;52.520;13.494;2022-08-03T07:29:53;3.70;;;1.70;;
9767;SDS011;4923;52.520;13.494;2022-08-03T07:32:41;5.03;;;1.40;;
9767;SDS011;4923;52.520;13.494;2022-08-03T07:35:29;8.03;;;1.50;;
9767;SDS011;4923;52.520;13.494;2022-08-03T07:38:16;17.37;;;1.53;;
9767;SDS011;4923;52.520;13.494;2022-08-03T07:41:04;12.33;;;1.43;;
9767;SDS011;4923;52.520;13.494;2022-08-03T07:43:51;5.20;;;1.10;;
9767;SDS011;4923;52.520;13.494;2022-08-03T07:46:38;3.53;;;1.40;;
9767;SDS011;4923;52.520;13.494;2022-08-03T07:49:25;4.50;;;1.60;;
9767;SDS011;4923;52.520;13.494;2022-08-03T07:52:12;2.13;;;1.00;;
9767;SDS011;4923;52.520;13.494;2022-08-03T07:55:18;1.17;;;1.00;;
9767;SDS011;4923;52.520;13.494;2022-08-03T07:58:09;1.47;;;1.00;;
9767;SDS011;4923;52.520;13.494;2022-08-03T08:01:00;1.47;;;1.20;;
9767;SDS011;4923;52.520;13.494;2022-08-03T08:03:47;2.00;;;1.10;;
9767;SDS011;4923;52.520;13.494;2022-08-03T08:06:36;3.77;;;1.53;;
9767;SDS011;4923;52.520;13.494;2022-08-03T08:09:23;1.17;;;0.97;;
9767;SDS011;4923;52.520;13.494;2022-08-03T08:12:13;7.30;;;0.93;;
9767;SDS011;4923;52.520;13.494;2022-08-03T08:15:02;1.47;;;1.20;;
9767;SDS011;4923;52.520;13.494;2022-08-03T08:17:51;1.53;;;0.93;;
9767;SDS011;4923;52.520;13.494;2022-08-03T08:20:39;3.97;;;0.93;;
9767;SDS011;4923;52.520;13.494;2022-08-03T08:23:26;5.87;;;0.87;;
9767;SDS011;4923;52.520;13.494;2022-08-03T08:26:13;2.20;;;0.90;;
9767;SDS011;4923;52.520;13.494;2022-08-03T08:29:00;0.90;;;0.90;;
9767;SDS011;4923;52.520;13.494;2022-08-03T08:31:49;4.23;;;1.10;;
9767;SDS011;4923;52.520;13.494;2022-08-03T08:34:36;5.53;;;1.13;;
9767;SDS011;4923;52.520;13.494;2022-08-03T08:37:23;10.47;;;1.00;;
9767;SDS011;4923;52.520;13.494;2022-08-03T08:40:10;3.80;;;1.03;;
9767;SDS011;4923;52.520;13.494;2022-08-03T08:42:58;2.70;;;1.00;;
9767;SDS011;4923;52.520;13.494;2022-08-03T08:45:46;0.70;;;0.70;;
9767;SDS011;4923;52.520;13.494;2022-08-03T08:48:37;1.77;;;1.00;;
9767;SDS011;4923;52.520;13.494;2022-08-03T08:51:27;0.67;;;0.63;;
9767;SDS011;4923;52.520;13.494;2022-08-03T08:54:17;3.80;;;0.80;;
9767;SDS011;4923;52.520;13.494;2022-08-03T08:57:07;1.93;;;0.80;;
9767;SDS011;4923;52.520;13.494;2022-08-03T08:59:55;4.30;;;0.87;;
9767;SDS011;4923;52.520;13.494;2022-08-03T09:02:43;0.77;;;0.77;;
9767;SDS011;4923;52.520;13.494;2022-08-03T09:05:32;2.00;;;1.03;;
9767;SDS011;4923;52.520;13.494;2022-08-03T09:08:19;6.80;;;1.10;;
9767;SDS011;4923;52.520;13.494;2022-08-03T09:11:07;10.70;;;0.90;;
9767;SDS011;4923;52.520;13.494;2022-08-03T09:13:54;1.93;;;1.03;;
9767;SDS011;4923;52.520;13.494;2022-08-03T09:16:53;1.53;;;1.10;;
9767;SDS011;4923;52.520;13.494;2022-08-03T09:19:42;0.80;;;0.80;;
9767;SDS011;4923;52.520;13.494;2022-08-03T09:22:55;13.53;;;1.10;;
9767;SDS011;4923;52.520;13.494;2022-08-03T09:25:44;6.97;;;0.80;;
9767;SDS011;4923;52.520;13.494;2022-08-03T09:28:32;1.03;;;0.80;;
9767;SDS011;4923;52.520;13.494;2022-08-03T09:31:27;8.53;;;1.10;;
9767;SDS011;4923;52.520;13.494;2022-08-03T09:34:15;0.93;;;0.80;;
9767;SDS011;4923;52.520;13.494;2022-08-03T09:37:03;2.40;;;0.97;;
9767;SDS011;4923;52.520;13.494;2022-08-03T09:40:01;3.50;;;0.83;;
9767;SDS011;4923;52.520;13.494;2022-08-03T09:42:54;2.43;;;0.70;;
9767;SDS011;4923;52.520;13.494;2022-08-03T09:45:41;3.93;;;1.27;;
9767;SDS011;4923;52.520;13.494;2022-08-03T09:48:29;5.20;;;1.00;;
9767;SDS011;4923;52.520;13.494;2022-08-03T09:51:19;2.20;;;1.03;;
9767;SDS011;4923;52.520;13.494;2022-08-03T09:54:10;6.33;;;1.30;;
9767;SDS011;4923;52.520;13.494;2022-08-03T09:56:58;0.73;;;0.73;;
9767;SDS011;4923;52.520;13.494;2022-08-03T09:59:45;5.67;;;1.00;;
9767;SDS011;4923;52.520;13.494;2022-08-03T10:02:32;4.67;;;1.07;;
9767;SDS011;4923;52.520;13.494;2022-08-03T10:05:19;1.10;;;0.80;;
9767;SDS011;4923;52.520;13.494;2022-08-03T10:08:18;0.83;;;0.80;;
9767;SDS011;4923;52.520;13.494;2022-08-03T10:11:05;2.50;;;0.80;;
9767;SDS011;4923;52.520;13.494;2022-08-03T10:13:54;2.77;;;0.83;;
9767;SDS011;4923;52.520;13.494;2022-08-03T10:16:41;2.80;;;0.97;;
9767;SDS011;4923;52.520;13.494;2022-08-03T10:19:28;1.30;;;1.20;;
9767;SDS011;4923;52.520;13.494;2022-08-03T10:22:16;1.13;;;0.80;;
9767;SDS011;4923;52.520;13.494;2022-08-03T10:25:06;4.53;;;0.77;;
9767;SDS011;4923;52.520;13.494;2022-08-03T10:27:54;0.70;;;0.70;;
9767;SDS011;4923;52.520;13.494;2022-08-03T10:30:46;6.33;;;1.10;;
9767;SDS011;4923;52.520;13.494;2022-08-03T10:33:36;3.50;;;0.70;;
9767;SDS011;4923;52.520;13.494;2022-08-03T10:36:29;6.90;;;1.20;;
9767;SDS011;4923;52.520;13.494;2022-08-03T10:39:18;2.33;;;0.90;;
9767;SDS011;4923;52.520;13.494;2022-08-03T10:42:07;2.10;;;1.00;;
9767;SDS011;4923;52.520;13.494;2022-08-03T10:44:59;3.20;;;0.90;;
9767;SDS011;4923;52.520;13.494;2022-08-03T10:47:50;0.70;;;0.70;;
9767;SDS011;4923;52.520;13.494;2022-08-03T10:50:39;1.03;;;0.93;;
9767;SDS011;4923;52.520;13.494;2022-08-03T10:53:33;0.90;;;0.70;;
9767;SDS011;4923;52.520;13.494;2022-08-03T10:56:37;4.13;;;0.70;;
9767;SDS011;4923;52.520;13.494;2022-08-03T10:59:57;0.83;;;0.83;;
9767;SDS011;4923;52.520;13.494;2022-08-03T11:03:02;1.90;;;0.73;;
9767;SDS011;4923;52.520;13.494;2022-08-03T11:05:50;2.63;;;0.77;;
9767;SDS011;4923;52.520;13.494;2022-08-03T11:08:38;2.60;;;0.67;;
9767;SDS011;4923;52.520;13.494;2022-08-03T11:11:25;2.63;;;0.63;;
9767;SDS011;4923;52.520;13.494;2022-08-03T11:14:14;0.53;;;0.53;;
9767;SDS011;4923;52.520;13.494;2022-08-03T11:17:05;9.00;;;0.80;;
9767;SDS011;4923;52.520;13.494;2022-08-03T11:19:55;1.63;;;0.90;;
9767;SDS011;4923;52.520;13.494;2022-08-03T11:22:49;2.00;;;0.60;;
9767;SDS011;4923;52.520;13.494;2022-08-03T11:29:09;6.40;;;0.77;;
9767;SDS011;4923;52.520;13.494;2022-08-03T11:32:15;2.37;;;0.73;;
9767;SDS011;4923;52.520;13.494;2022-08-03T11:35:57;0.90;;;0.60;;
9767;SDS011;4923;52.520;13.494;2022-08-03T11:41:58;0.63;;;0.60;;
9767;SDS011;4923;52.520;13.494;2022-08-03T11:44:44;0.93;;;0.93;;
9767;SDS011;4923;52.520;13.494;2022-08-03T11:47:34;2.73;;;0.60;;
9767;SDS011;4923;52.520;13.494;2022-08-03T11:50:24;1.23;;;0.90;;
9767;SDS011;4923;52.520;13.494;2022-08-03T11:53:15;5.07;;;0.80;;
9767;SDS011;4923;52.520;13.494;2022-08-03T11:56:04;2.27;;;1.13;;
9767;SDS011;4923;52.520;13.494;2022-08-03T11:58:52;6.00;;;1.07;;
9767;SDS011;4923;52.520;13.494;2022-08-03T12:01:40;0.80;;;0.80;;
9767;SDS011;4923;52.520;13.494;2022-08-03T12:04:27;3.70;;;0.60;;
9767;SDS011;4923;52.520;13.494;2022-08-03T12:07:16;0.83;;;0.83;;
9767;SDS011;4923;52.520;13.494;2022-08-03T12:10:07;3.80;;;1.00;;
9767;SDS011;4923;52.520;13.494;2022-08-03T12:12:55;1.93;;;0.63;;
9767;SDS011;4923;52.520;13.494;2022-08-03T12:15:43;1.00;;;1.00;;
9767;SDS011;4923;52.520;13.494;2022-08-03T12:18:36;0.80;;;0.80;;
9767;SDS011;4923;52.520;13.494;2022-08-03T12:21:23;1.47;;;0.80;;
9767;SDS011;4923;52.520;13.494;2022-08-03T12:24:12;0.83;;;0.83;;
9767;SDS011;4923;52.520;13.494;2022-08-03T12:26:59;0.70;;;0.70;;
9767;SDS011;4923;52.520;13.494;2022-08-03T12:29:49;2.80;;;0.90;;
9767;SDS011;4923;52.520;13.494;2022-08-03T12:32:36;2.23;;;0.83;;
9767;SDS011;4923;52.520;13.494;2022-08-03T12:35:23;2.10;;;0.97;;
9767;SDS011;4923;52.520;13.494;2022-08-03T12:38:10;9.83;;;0.90;;
9767;SDS011;4923;52.520;13.494;2022-08-03T12:41:00;1.03;;;0.83;;
9767;SDS011;4923;52.520;13.494;2022-08-03T12:43:50;0.80;;;0.70;;
9767;SDS011;4923;52.520;13.494;2022-08-03T12:46:37;0.67;;;0.67;;
9767;SDS011;4923;52.520;13.494;2022-08-03T12:49:25;0.70;;;0.70;;
9767;SDS011;4923;52.520;13.494;2022-08-03T12:52:13;1.23;;;0.70;;
9767;SDS011;4923;52.520;13.494;2022-08-03T12:55:01;3.30;;;0.80;;
9767;SDS011;4923;52.520;13.494;2022-08-03T12:57:49;1.17;;;0.70;;
9767;SDS011;4923;52.520;13.494;2022-08-03T13:00:36;0.60;;;0.60;;
9767;SDS011;4923;52.520;13.494;2022-08-03T13:03:24;1.07;;;0.60;;
9767;SDS011;4923;52.520;13.494;2022-08-03T13:06:11;11.53;;;1.20;;
9767;SDS011;4923;52.520;13.494;2022-08-03T13:09:03;5.70;;;0.83;;
9767;SDS011;4923;52.520;13.494;2022-08-03T13:12:03;0.67;;;0.67;;
9767;SDS011;4923;52.520;13.494;2022-08-03T13:14:53;1.73;;;0.60;;
9767;SDS011;4923;52.520;13.494;2022-08-03T13:17:41;1.30;;;0.80;;
9767;SDS011;4923;52.520;13.494;2022-08-03T13:20:28;7.70;;;1.27;;
9767;SDS011;4923;52.520;13.494;2022-08-03T13:23:15;1.60;;;0.80;;
9767;SDS011;4923;52.520;13.494;2022-08-03T13:26:02;0.70;;;0.70;;
9767;SDS011;4923;52.520;13.494;2022-08-03T13:28:49;2.70;;;0.70;;
9767;SDS011;4923;52.520;13.494;2022-08-03T13:31:38;0.80;;;0.80;;
9767;SDS011;4923;52.520;13.494;2022-08-03T13:34:25;3.40;;;1.00;;
9767;SDS011;4923;52.520;13.494;2022-08-03T13:37:12;0.73;;;0.73;;
9767;SDS011;4923;52.520;13.494;2022-08-03T13:40:00;1.07;;;0.70;;
9767;SDS011;4923;52.520;13.494;2022-08-03T13:42:48;3.77;;;1.10;;
9767;SDS011;4923;52.520;13.494;2022-08-03T13:45:35;2.40;;;0.60;;
9767;SDS011;4923;52.520;13.494;2022-08-03T13:48:23;1.23;;;0.93;;
9767;SDS011;4923;52.520;13.494;2022-08-03T13:51:12;0.97;;;0.73;;
9767;SDS011;4923;52.520;13.494;2022-08-03T13:53:58;0.90;;;0.90;;
9767;SDS011;4923;52.520;13.494;2022-08-03T13:56:46;1.97;;;0.73;;
9767;SDS011;4923;52.520;13.494;2022-08-03T13:59:34;10.30;;;0.70;;
9767;SDS011;4923;52.520;13.494;2022-08-03T14:02:21;5.70;;;0.80;;
9767;SDS011;4923;52.520;13.494;2022-08-03T14:05:09;0.60;;;0.60;;
9767;SDS011;4923;52.520;13.494;2022-08-03T14:07:56;2.23;;;1.00;;
9767;SDS011;4923;52.520;13.494;2022-08-03T14:10:45;3.23;;;1.00;;
9767;SDS011;4923;52.520;13.494;2022-08-03T14:13:32;1.23;;;0.80;;
9767;SDS011;4923;52.520;13.494;2022-08-03T14:16:19;0.73;;;0.73;;
9767;SDS011;4923;52.520;13.494;2022-08-03T14:19:06;0.70;;;0.70;;
9767;SDS011;4923;52.520;13.494;2022-08-03T14:21:55;0.60;;;0.60;;
9767;SDS011;4923;52.520;13.494;2022-08-03T14:24:42;1.87;;;0.60;;
9767;SDS011;4923;52.520;13.494;2022-08-03T14:27:29;1.00;;;0.97;;
9767;SDS011;4923;52.520;13.494;2022-08-03T14:30:16;2.20;;;0.70;;
9767;SDS011;4923;52.520;13.494;2022-08-03T14:33:03;2.40;;;0.77;;
9767;SDS011;4923;52.520;13.494;2022-08-03T14:35:51;3.50;;;1.00;;
9767;SDS011;4923;52.520;13.494;2022-08-03T14:38:39;1.30;;;0.63;;
9767;SDS011;4923;52.520;13.494;2022-08-03T14:41:26;2.23;;;0.70;;
9767;SDS011;4923;52.520;13.494;2022-08-03T14:44:13;2.30;;;0.80;;
9767;SDS011;4923;52.520;13.494;2022-08-03T14:47:00;0.70;;;0.60;;
9767;SDS011;4923;52.520;13.494;2022-08-03T14:49:47;3.33;;;0.70;;
9767;SDS011;4923;52.520;13.494;2022-08-03T14:52:34;6.80;;;0.80;;
9767;SDS011;4923;52.520;13.494;2022-08-03T14:55:22;2.30;;;0.70;;
9767;SDS011;4923;52.520;13.494;2022-08-03T14:58:09;1.27;;;0.70;;
9767;SDS011;4923;52.520;13.494;2022-08-03T15:00:56;0.80;;;0.80;;
9767;SDS011;4923;52.520;13.494;2022-08-03T15:03:43;4.50;;;0.90;;
9767;SDS011;4923;52.520;13.494;2022-08-03T15:06:32;2.40;;;0.70;;
9767;SDS011;4923;52.520;13.494;2022-08-03T15:09:19;0.70;;;0.70;;
9767;SDS011;4923;52.520;13.494;2022-08-03T15:12:08;1.37;;;0.70;;
9767;SDS011;4923;52.520;13.494;2022-08-03T15:14:55;1.00;;;0.90;;
9767;SDS011;4923;52.520;13.494;2022-08-03T15:17:42;0.93;;;0.80;;
9767;SDS011;4923;52.520;13.494;2022-08-03T15:20:29;0.70;;;0.70;;
9767;SDS011;4923;52.520;13.494;2022-08-03T15:23:16;3.80;;;0.80;;
9767;SDS011;4923;52.520;13.494;2022-08-03T15:26:03;0.70;;;0.70;;
9767;SDS011;4923;52.520;13.494;2022-08-03T15:28:52;0.67;;;0.67;;
9767;SDS011;4923;52.520;13.494;2022-08-03T15:31:38;4.00;;;0.80;;
9767;SDS011;4923;52.520;13.494;2022-08-03T15:34:25;3.23;;;0.60;;
9767;SDS011;4923;52.520;13.494;2022-08-03T15:37:12;2.83;;;0.80;;
9767;SDS011;4923;52.520;13.494;2022-08-03T15:39:59;0.67;;;0.67;;
9767;SDS011;4923;52.520;13.494;2022-08-03T15:42:46;2.27;;;0.80;;
9767;SDS011;4923;52.520;13.494;2022-08-03T15:45:34;0.70;;;0.70;;
9767;SDS011;4923;52.520;13.494;2022-08-03T15:48:21;1.13;;;1.00;;
9767;SDS011;4923;52.520;13.494;2022-08-03T15:51:09;0.63;;;0.63;;
9767;SDS011;4923;52.520;13.494;2022-08-03T15:53:56;7.43;;;0.80;;
9767;SDS011;4923;52.520;13.494;2022-08-03T15:56:43;0.80;;;0.80;;
9767;SDS011;4923;52.520;13.494;2022-08-03T15:59:30;1.10;;;0.77;;
9767;SDS011;4923;52.520;13.494;2022-08-03T16:02:19;0.80;;;0.70;;
9767;SDS011;4923;52.520;13.494;2022-08-03T16:05:06;1.03;;;0.90;;
9767;SDS011;4923;52.520;13.494;2022-08-03T16:07:54;0.80;;;0.80;;
9767;SDS011;4923;52.520;13.494;2022-08-03T16:10:41;0.97;;;0.70;;
9767;SDS011;4923;52.520;13.494;2022-08-03T16:13:28;6.43;;;0.70;;
9767;SDS011;4923;52.520;13.494;2022-08-03T16:16:14;1.10;;;0.70;;
9767;SDS011;4923;52.520;13.494;2022-08-03T16:19:03;7.90;;;0.73;;
9767;SDS011;4923;52.520;13.494;2022-08-03T16:21:50;2.23;;;0.90;;
9767;SDS011;4923;52.520;13.494;2022-08-03T16:24:37;2.83;;;0.93;;
9767;SDS011;4923;52.520;13.494;2022-08-03T16:27:24;0.73;;;0.73;;
9767;SDS011;4923;52.520;13.494;2022-08-03T16:30:13;1.00;;;0.83;;
9767;SDS011;4923;52.520;13.494;2022-08-03T16:33:01;2.50;;;2.30;;
9767;SDS011;4923;52.520;13.494;2022-08-03T16:35:49;0.80;;;0.77;;
9767;SDS011;4923;52.520;13.494;2022-08-03T16:38:37;1.07;;;0.97;;
9767;SDS011;4923;52.520;13.494;2022-08-03T16:41:24;0.70;;;0.70;;
9767;SDS011;4923;52.520;13.494;2022-08-03T16:44:11;1.03;;;0.80;;
9767;SDS011;4923;52.520;13.494;2022-08-03T16:46:58;1.30;;;0.70;;
9767;SDS011;4923;52.520;13.494;2022-08-03T16:49:45;1.13;;;1.10;;
9767;SDS011;4923;52.520;13.494;2022-08-03T16:52:33;2.20;;;0.90;;
9767;SDS011;4923;52.520;13.494;2022-08-03T16:55:21;1.03;;;0.90;;
9767;SDS011;4923;52.520;13.494;2022-08-03T16:58:08;2.93;;;0.60;;
9767;SDS011;4923;52.520;13.494;2022-08-03T17:00:54;0.70;;;0.70;;
9767;SDS011;4923;52.520;13.494;2022-08-03T17:03:42;3.80;;;0.90;;
9767;SDS011;4923;52.520;13.494;2022-08-03T17:06:30;1.90;;;0.80;;
9767;SDS011;4923;52.520;13.494;2022-08-03T17:09:21;1.33;;;0.90;;
9767;SDS011;4923;52.520;13.494;2022-08-03T17:12:08;2.10;;;0.97;;
9767;SDS011;4923;52.520;13.494;2022-08-03T17:14:54;0.90;;;0.90;;
9767;SDS011;4923;52.520;13.494;2022-08-03T17:17:42;2.20;;;0.80;;
9767;SDS011;4923;52.520;13.494;2022-08-03T17:20:33;1.07;;;0.80;;